createdAt,value
2023-03-29T00:00:20.564Z,18.44
2023-03-29T00:01:35.210Z,18.47
2023-03-29T00:02:21.593Z,18.47
2023-03-29T00:03:20.633Z,18.50
2023-03-29T00:04:20.615Z,18.46
2023-03-29T00:05:20.553Z,18.41
2023-03-29T00:06:20.534Z,18.45
2023-03-29T00:07:20.522Z,18.46
2023-03-29T00:08:20.509Z,18.44
2023-03-29T00:09:20.487Z,18.49
2023-03-29T00:10:20.473Z,18.47
2023-03-29T00:11:20.489Z,18.47
2023-03-29T00:12:20.478Z,18.46
2023-03-29T00:13:20.522Z,18.46
2023-03-29T00:14:20.527Z,18.42
2023-03-29T00:15:20.586Z,18.48
2023-03-29T00:16:20.706Z,18.44
2023-03-29T00:17:20.679Z,18.50
2023-03-29T00:18:20.691Z,18.51
2023-03-29T00:19:20.747Z,18.48
2023-03-29T00:20:20.758Z,18.48
2023-03-29T00:21:20.827Z,18.44
2023-03-29T00:22:20.865Z,18.45
2023-03-29T00:23:20.941Z,18.44
2023-03-29T00:24:21.069Z,18.44
2023-03-29T00:25:21.035Z,18.46
2023-03-29T00:26:21.040Z,18.43
2023-03-29T00:27:21.074Z,18.42
2023-03-29T00:28:21.122Z,18.41
2023-03-29T00:29:21.163Z,18.44
2023-03-29T00:30:21.197Z,18.48
2023-03-29T00:31:21.205Z,18.47
2023-03-29T00:32:21.328Z,18.44
2023-03-29T00:33:21.296Z,18.44
2023-03-29T00:34:21.352Z,18.45
2023-03-29T00:35:21.437Z,18.41
2023-03-29T00:36:21.424Z,18.45
2023-03-29T00:37:21.458Z,18.44
2023-03-29T00:38:21.543Z,18.44
2023-03-29T00:39:21.608Z,18.48
2023-03-29T00:40:21.655Z,18.45
2023-03-29T00:41:21.670Z,18.48
2023-03-29T00:42:21.728Z,18.50
2023-03-29T00:43:21.787Z,18.51
2023-03-29T00:44:21.827Z,18.50
2023-03-29T00:45:21.846Z,18.56
2023-03-29T00:46:21.942Z,18.56
2023-03-29T00:47:21.954Z,18.58
2023-03-29T00:48:22.008Z,18.56
2023-03-29T00:49:21.998Z,18.56
2023-03-29T00:50:22.068Z,18.58
2023-03-29T00:51:22.100Z,18.59
2023-03-29T00:52:22.146Z,18.59
2023-03-29T00:53:22.260Z,18.66
2023-03-29T00:54:22.274Z,18.65
2023-03-29T00:55:22.337Z,18.58
2023-03-29T00:56:22.374Z,18.59
2023-03-29T00:57:22.531Z,18.60
2023-03-29T00:58:22.469Z,18.65
2023-03-29T00:59:22.512Z,18.64
2023-03-29T01:00:22.548Z,18.66
2023-03-29T01:01:22.761Z,18.66
2023-03-29T01:02:22.748Z,18.64
2023-03-29T01:03:22.842Z,18.64
2023-03-29T01:04:22.752Z,18.65
2023-03-29T01:05:22.804Z,18.65
2023-03-29T01:06:22.970Z,18.68
2023-03-29T01:07:22.906Z,18.66
2023-03-29T01:08:22.959Z,18.72
2023-03-29T01:09:22.953Z,18.68
2023-03-29T01:10:23.031Z,18.72
2023-03-29T01:11:23.060Z,18.66
2023-03-29T01:12:23.120Z,18.71
2023-03-29T01:13:23.177Z,18.70
2023-03-29T01:14:23.194Z,18.70
2023-03-29T01:15:23.259Z,18.66
2023-03-29T01:16:23.334Z,18.65
2023-03-29T01:17:23.353Z,18.68
2023-03-29T01:18:23.410Z,18.71
2023-03-29T01:19:23.481Z,18.71
2023-03-29T01:20:23.468Z,18.68
2023-03-29T01:21:23.604Z,18.70
2023-03-29T01:22:23.574Z,18.72
2023-03-29T01:23:23.637Z,18.69
2023-03-29T01:24:23.656Z,18.66
2023-03-29T01:25:23.751Z,18.74
2023-03-29T01:26:23.770Z,18.72
2023-03-29T01:27:23.790Z,18.75
2023-03-29T01:28:23.851Z,18.74
2023-03-29T01:29:23.894Z,18.75
2023-03-29T01:30:23.923Z,18.72
2023-03-29T01:31:24.027Z,18.72
2023-03-29T01:32:24.065Z,18.69
2023-03-29T01:33:24.052Z,18.68
2023-03-29T01:34:24.089Z,18.75
2023-03-29T01:35:24.109Z,18.75
2023-03-29T01:36:24.129Z,18.74
2023-03-29T01:37:24.167Z,18.77
2023-03-29T01:38:24.219Z,18.78
2023-03-29T01:39:24.248Z,18.77
2023-03-29T01:40:24.334Z,18.78
2023-03-29T01:41:24.321Z,18.77
2023-03-29T01:42:24.403Z,18.77
2023-03-29T01:43:24.402Z,18.74
2023-03-29T01:44:24.453Z,18.74
2023-03-29T01:45:24.478Z,18.74
2023-03-29T01:46:24.521Z,18.75
2023-03-29T01:47:24.562Z,18.78
2023-03-29T01:48:24.624Z,18.78
2023-03-29T01:49:24.654Z,18.80
2023-03-29T01:50:24.674Z,18.77
2023-03-29T01:51:24.705Z,18.78
2023-03-29T01:52:24.704Z,18.74
2023-03-29T01:53:24.764Z,18.78
2023-03-29T01:54:24.804Z,18.81
2023-03-29T01:55:24.854Z,18.81
2023-03-29T01:56:24.896Z,18.82
2023-03-29T01:57:25.099Z,18.80
2023-03-29T01:58:24.931Z,18.81
2023-03-29T01:59:25.015Z,18.77
2023-03-29T02:00:25.065Z,18.81
2023-03-29T02:01:25.121Z,18.81
2023-03-29T02:02:25.160Z,18.86
2023-03-29T02:03:25.228Z,18.84
2023-03-29T02:04:25.201Z,18.82
2023-03-29T02:05:25.243Z,18.83
2023-03-29T02:06:25.270Z,18.87
2023-03-29T02:07:25.345Z,18.86
2023-03-29T02:08:25.365Z,18.81
2023-03-29T02:09:25.450Z,18.87
2023-03-29T02:10:25.427Z,18.86
2023-03-29T02:11:25.488Z,18.86
2023-03-29T02:12:25.515Z,18.86
2023-03-29T02:13:25.529Z,18.81
2023-03-29T02:14:25.566Z,18.81
2023-03-29T02:15:25.679Z,18.91
2023-03-29T02:16:25.668Z,18.95
2023-03-29T02:17:25.720Z,18.93
2023-03-29T02:18:25.745Z,18.92
2023-03-29T02:19:25.814Z,18.90
2023-03-29T02:20:25.851Z,18.90
2023-03-29T02:21:25.872Z,18.99
2023-03-29T02:22:25.942Z,18.95
2023-03-29T02:23:25.966Z,19.01
2023-03-29T02:24:25.996Z,18.98
2023-03-29T02:25:26.147Z,19.01
2023-03-29T02:26:26.102Z,18.99
2023-03-29T02:27:26.154Z,19.04
2023-03-29T02:28:26.184Z,19.01
2023-03-29T02:29:26.168Z,18.97
2023-03-29T02:30:26.209Z,19.04
2023-03-29T02:31:26.255Z,19.07
2023-03-29T02:32:26.290Z,19.02
2023-03-29T02:33:26.280Z,19.04
2023-03-29T02:34:26.307Z,19.04
2023-03-29T02:35:26.342Z,19.09
2023-03-29T02:36:26.344Z,19.05
2023-03-29T02:37:26.400Z,19.05
2023-03-29T02:38:26.423Z,19.09
2023-03-29T02:39:26.420Z,19.08
2023-03-29T02:40:26.480Z,19.11
2023-03-29T02:41:26.476Z,19.18
2023-03-29T02:42:26.540Z,19.15
2023-03-29T02:43:26.540Z,19.15
2023-03-29T02:44:26.552Z,19.15
2023-03-29T02:45:26.607Z,19.14
2023-03-29T02:46:26.711Z,19.20
2023-03-29T02:47:26.701Z,19.20
2023-03-29T02:48:26.699Z,19.20
2023-03-29T02:49:26.733Z,19.21
2023-03-29T02:50:26.789Z,19.26
2023-03-29T02:51:26.806Z,19.23
2023-03-29T02:52:26.820Z,19.24
2023-03-29T02:53:26.792Z,19.26
2023-03-29T02:54:26.830Z,19.28
2023-03-29T02:55:26.826Z,19.28
2023-03-29T02:56:26.852Z,19.29
2023-03-29T02:57:26.999Z,19.32
2023-03-29T02:58:26.920Z,19.38
2023-03-29T02:59:26.918Z,19.33
2023-03-29T03:00:26.941Z,19.33
2023-03-29T03:01:27.010Z,19.32
2023-03-29T03:02:27.004Z,19.35
2023-03-29T03:03:27.148Z,19.32
2023-03-29T03:04:27.061Z,19.40
2023-03-29T03:05:27.112Z,19.33
2023-03-29T03:06:27.139Z,19.34
2023-03-29T03:07:27.182Z,19.35
2023-03-29T03:08:27.237Z,19.34
2023-03-29T03:09:27.270Z,19.31
2023-03-29T03:10:27.301Z,19.34
2023-03-29T03:11:27.316Z,19.33
2023-03-29T03:12:27.341Z,19.31
2023-03-29T03:13:27.358Z,19.29
2023-03-29T03:14:27.388Z,19.31
2023-03-29T03:15:27.432Z,19.40
2023-03-29T03:16:27.527Z,19.34
2023-03-29T03:17:27.551Z,19.36
2023-03-29T03:18:27.519Z,19.36
2023-03-29T03:19:27.565Z,19.33
2023-03-29T03:20:27.621Z,19.33
2023-03-29T03:21:27.677Z,19.36
2023-03-29T03:22:27.675Z,19.36
2023-03-29T03:23:27.742Z,19.35
2023-03-29T03:24:27.792Z,19.33
2023-03-29T03:25:27.847Z,19.35
2023-03-29T03:26:27.876Z,19.31
2023-03-29T03:27:28.775Z,19.33
2023-03-29T03:28:27.976Z,19.32
2023-03-29T03:29:27.990Z,19.35
2023-03-29T03:30:28.011Z,19.33
2023-03-29T03:31:28.116Z,19.32
2023-03-29T03:32:28.144Z,19.34
2023-03-29T03:33:28.117Z,19.28
2023-03-29T03:34:28.152Z,19.35
2023-03-29T03:35:28.244Z,19.32
2023-03-29T03:36:28.223Z,19.34
2023-03-29T03:37:28.321Z,19.29
2023-03-29T03:38:28.339Z,19.31
2023-03-29T03:39:28.382Z,19.32
2023-03-29T03:40:28.503Z,19.29
2023-03-29T03:41:28.456Z,19.28
2023-03-29T03:42:28.494Z,19.25
2023-03-29T03:43:28.542Z,19.26
2023-03-29T03:44:28.592Z,19.31
2023-03-29T03:45:28.620Z,19.26
2023-03-29T03:46:29.731Z,19.29
2023-03-29T03:47:28.812Z,19.25
2023-03-29T03:48:28.745Z,19.33
2023-03-29T03:49:28.821Z,19.34
2023-03-29T03:50:28.825Z,19.34
2023-03-29T03:51:28.867Z,19.37
2023-03-29T03:52:28.882Z,19.37
2023-03-29T03:53:28.888Z,19.37
2023-03-29T03:54:28.944Z,19.40
2023-03-29T03:55:28.970Z,19.34
2023-03-29T03:56:29.039Z,19.31
2023-03-29T03:57:29.060Z,19.37
2023-03-29T03:58:29.103Z,19.39
2023-03-29T03:59:29.124Z,19.40
2023-03-29T04:00:29.187Z,19.39
2023-03-29T04:01:29.231Z,19.36
2023-03-29T04:02:29.312Z,19.39
2023-03-29T04:03:29.402Z,19.37
2023-03-29T04:04:29.375Z,19.42
2023-03-29T04:05:29.381Z,19.37
2023-03-29T04:06:29.404Z,19.42
2023-03-29T04:07:29.456Z,19.37
2023-03-29T04:08:29.526Z,19.42
2023-03-29T04:09:29.525Z,19.39
2023-03-29T04:10:29.620Z,19.47
2023-03-29T04:11:29.651Z,19.42
2023-03-29T04:12:29.643Z,19.47
2023-03-29T04:13:29.689Z,19.47
2023-03-29T04:14:29.744Z,19.45
2023-03-29T04:15:29.864Z,19.42
2023-03-29T04:16:29.864Z,19.39
2023-03-29T04:17:29.870Z,19.45
2023-03-29T04:18:29.996Z,19.42
2023-03-29T04:19:29.929Z,19.39
2023-03-29T04:20:29.967Z,19.42
2023-03-29T04:21:30.031Z,19.42
2023-03-29T04:22:30.055Z,19.41
2023-03-29T04:23:30.097Z,19.39
2023-03-29T04:24:30.161Z,19.38
2023-03-29T04:25:30.167Z,19.35
2023-03-29T04:26:30.206Z,19.29
2023-03-29T04:27:30.225Z,19.35
2023-03-29T04:28:30.268Z,19.38
2023-03-29T04:29:30.332Z,19.39
2023-03-29T04:30:30.343Z,19.41
2023-03-29T04:31:30.397Z,19.39
2023-03-29T04:32:30.459Z,19.44
2023-03-29T04:33:30.462Z,19.44
2023-03-29T04:34:30.492Z,19.45
2023-03-29T04:35:30.581Z,19.45
2023-03-29T04:36:30.563Z,19.50
2023-03-29T04:37:30.572Z,19.41
2023-03-29T04:38:30.611Z,19.20
2023-03-29T04:39:30.656Z,19.14
2023-03-29T04:40:30.744Z,19.26
2023-03-29T04:41:30.767Z,19.38
2023-03-29T04:42:30.794Z,19.41
2023-03-29T04:43:30.784Z,19.48
2023-03-29T04:44:30.844Z,19.50
2023-03-29T04:45:30.910Z,19.53
2023-03-29T04:46:30.956Z,19.46
2023-03-29T04:47:31.030Z,19.16
2023-03-29T04:48:31.012Z,19.14
2023-03-29T04:49:31.076Z,19.18
2023-03-29T04:50:31.099Z,19.44
2023-03-29T04:51:31.166Z,19.66
2023-03-29T04:52:31.170Z,19.72
2023-03-29T04:53:31.186Z,19.72
2023-03-29T04:54:31.250Z,19.84
2023-03-29T04:55:31.293Z,19.87
2023-03-29T04:56:31.293Z,19.87
2023-03-29T04:57:31.380Z,19.91
2023-03-29T04:58:32.568Z,19.86
2023-03-29T04:59:31.458Z,19.84
2023-03-29T05:00:31.453Z,19.91
2023-03-29T05:01:38.513Z,19.80
2023-03-29T05:02:31.533Z,19.88
2023-03-29T05:03:31.472Z,19.88
2023-03-29T05:04:31.561Z,19.86
2023-03-29T05:05:31.465Z,19.85
2023-03-29T05:06:31.429Z,19.85
2023-03-29T05:07:31.424Z,19.86
2023-03-29T05:08:31.405Z,19.86
2023-03-29T05:09:33.044Z,19.89
2023-03-29T05:10:31.385Z,19.94
2023-03-29T05:11:31.391Z,19.92
2023-03-29T05:12:31.363Z,20.06
2023-03-29T05:13:31.357Z,20.19
2023-03-29T05:14:31.347Z,20.20
2023-03-29T05:15:31.326Z,20.31
2023-03-29T05:16:31.377Z,20.49
2023-03-29T05:17:31.306Z,20.57
2023-03-29T05:18:31.283Z,20.63
2023-03-29T05:19:31.246Z,20.55
2023-03-29T05:20:31.261Z,20.58
2023-03-29T05:21:31.265Z,20.62
2023-03-29T05:22:31.267Z,20.63
2023-03-29T05:23:31.253Z,20.62
2023-03-29T05:24:31.211Z,20.67
2023-03-29T05:25:31.197Z,20.61
2023-03-29T05:26:31.201Z,20.61
2023-03-29T05:27:31.214Z,20.64
2023-03-29T05:28:31.210Z,20.53
2023-03-29T05:29:31.171Z,20.52
2023-03-29T05:30:31.152Z,20.59
2023-03-29T05:31:31.232Z,20.59
2023-03-29T05:32:31.159Z,20.69
2023-03-29T05:33:31.110Z,20.72
2023-03-29T05:34:31.138Z,20.72
2023-03-29T05:35:31.126Z,20.72
2023-03-29T05:36:31.094Z,20.67
2023-03-29T05:37:31.073Z,20.70
2023-03-29T05:38:31.590Z,20.78
2023-03-29T05:39:31.378Z,20.90
2023-03-29T05:40:31.079Z,21.04
2023-03-29T05:41:31.065Z,21.22
2023-03-29T05:42:31.022Z,21.10
2023-03-29T05:43:31.046Z,21.21
2023-03-29T05:44:31.432Z,21.30
2023-03-29T05:45:31.105Z,21.30
2023-03-29T05:46:38.062Z,21.24
2023-03-29T05:47:31.024Z,22.11
2023-03-29T05:48:31.003Z,21.99
2023-03-29T05:49:31.023Z,21.95
2023-03-29T05:50:31.021Z,21.97
2023-03-29T05:51:30.961Z,21.91
2023-03-29T05:52:30.988Z,21.86
2023-03-29T05:53:30.974Z,21.78
2023-03-29T05:54:30.955Z,21.79
2023-03-29T05:55:30.953Z,21.75
2023-03-29T05:56:30.929Z,21.69
2023-03-29T05:57:30.898Z,21.65
2023-03-29T05:58:30.906Z,21.62
2023-03-29T05:59:30.890Z,21.58
2023-03-29T06:00:30.888Z,21.60
2023-03-29T06:01:30.844Z,21.51
2023-03-29T06:02:30.923Z,21.50
2023-03-29T06:03:30.900Z,21.44
2023-03-29T06:04:31.005Z,21.38
2023-03-29T06:05:30.776Z,21.35
2023-03-29T06:06:30.745Z,21.32
2023-03-29T06:07:30.736Z,21.29
2023-03-29T06:08:30.683Z,21.25
2023-03-29T06:09:30.670Z,21.14
2023-03-29T06:10:30.666Z,21.16
2023-03-29T06:11:30.681Z,21.09
2023-03-29T06:12:30.617Z,21.12
2023-03-29T06:13:30.721Z,21.01
2023-03-29T06:14:31.877Z,21.03
2023-03-29T06:15:31.457Z,21.04
2023-03-29T06:16:30.586Z,20.94
2023-03-29T06:17:30.785Z,20.92
2023-03-29T06:18:30.610Z,20.90
2023-03-29T06:19:30.922Z,20.88
2023-03-29T06:20:30.638Z,20.88
2023-03-29T06:21:30.726Z,20.79
2023-03-29T06:22:30.632Z,20.82
2023-03-29T06:23:30.960Z,20.79
2023-03-29T06:24:30.956Z,20.76
2023-03-29T06:25:30.707Z,20.82
2023-03-29T06:26:30.709Z,20.73
2023-03-29T06:27:30.729Z,20.75
2023-03-29T06:28:30.726Z,20.77
2023-03-29T06:29:30.796Z,20.70
2023-03-29T06:30:30.700Z,20.69
2023-03-29T06:31:30.771Z,20.66
2023-03-29T06:32:30.748Z,20.66
2023-03-29T06:33:30.787Z,20.61
2023-03-29T06:34:30.809Z,20.68
2023-03-29T06:35:30.781Z,20.63
2023-03-29T06:36:30.823Z,21.24
2023-03-29T06:37:30.826Z,21.32
2023-03-29T06:38:30.853Z,22.23
2023-03-29T06:39:30.847Z,22.52
2023-03-29T06:40:30.854Z,22.42
2023-03-29T06:41:30.898Z,23.05
2023-03-29T06:42:30.914Z,22.80
2023-03-29T06:43:30.974Z,22.48
2023-03-29T06:44:31.431Z,21.62
2023-03-29T06:45:31.090Z,21.70
2023-03-29T06:46:31.043Z,21.47
2023-03-29T06:47:31.161Z,21.19
2023-03-29T06:48:31.029Z,21.66
2023-03-29T06:49:31.063Z,21.73
2023-03-29T06:50:31.104Z,21.50
2023-03-29T06:51:31.132Z,21.91
2023-03-29T06:52:31.170Z,21.78
2023-03-29T06:53:31.254Z,22.41
2023-03-29T06:54:31.508Z,22.21
2023-03-29T06:55:31.368Z,22.49
2023-03-29T06:56:31.402Z,22.93
2023-03-29T06:57:31.706Z,22.87
2023-03-29T06:58:32.852Z,23.01
2023-03-29T06:59:31.948Z,22.94
2023-03-29T07:00:31.576Z,22.79
2023-03-29T07:01:31.674Z,22.80
2023-03-29T07:02:31.857Z,22.66
2023-03-29T07:03:31.763Z,22.97
2023-03-29T07:04:32.029Z,22.99
2023-03-29T07:05:31.886Z,23.07
2023-03-29T07:06:31.914Z,22.93
2023-03-29T07:07:31.997Z,22.93
2023-03-29T07:08:32.042Z,22.80
2023-03-29T07:09:32.231Z,22.79
2023-03-29T07:10:32.173Z,22.57
2023-03-29T07:11:32.129Z,22.52
2023-03-29T07:12:32.171Z,22.42
2023-03-29T07:13:32.193Z,22.45
2023-03-29T07:14:32.437Z,22.66
2023-03-29T07:15:32.241Z,22.62
2023-03-29T07:16:32.349Z,22.58
2023-03-29T07:17:32.380Z,22.46
2023-03-29T07:18:32.370Z,22.57
2023-03-29T07:19:32.401Z,22.57
2023-03-29T07:20:32.453Z,22.26
2023-03-29T07:21:32.465Z,22.24
2023-03-29T07:22:32.474Z,22.06
2023-03-29T07:23:32.482Z,21.98
2023-03-29T07:24:32.612Z,22.06
2023-03-29T07:25:32.476Z,22.02
2023-03-29T07:26:32.501Z,22.05
2023-03-29T07:27:32.500Z,22.10
2023-03-29T07:28:32.509Z,21.98
2023-03-29T07:29:32.478Z,21.77
2023-03-29T07:30:32.977Z,22.04
2023-03-29T07:31:32.470Z,21.81
2023-03-29T07:32:32.674Z,22.43
2023-03-29T07:33:32.605Z,22.76
2023-03-29T07:34:32.470Z,22.20
2023-03-29T07:35:32.479Z,23.13
2023-03-29T07:36:32.489Z,23.62
2023-03-29T07:37:32.500Z,24.16
2023-03-29T07:38:32.548Z,24.16
2023-03-29T07:39:32.473Z,24.53
2023-03-29T07:40:32.482Z,24.33
2023-03-29T07:41:32.463Z,24.13
2023-03-29T07:42:32.478Z,24.25
2023-03-29T07:43:32.467Z,24.27
2023-03-29T07:44:32.461Z,23.80
2023-03-29T07:45:33.478Z,23.89
2023-03-29T07:46:32.475Z,23.91
2023-03-29T07:47:32.489Z,23.62
2023-03-29T07:48:32.447Z,22.98
2023-03-29T07:49:32.444Z,22.48
2023-03-29T07:50:32.534Z,22.49
2023-03-29T07:51:32.461Z,22.20
2023-03-29T07:52:32.430Z,22.71
2023-03-29T07:53:32.441Z,22.36
2023-03-29T07:54:32.425Z,22.97
2023-03-29T07:55:32.483Z,22.81
2023-03-29T07:56:32.497Z,22.73
2023-03-29T07:57:32.588Z,23.21
2023-03-29T07:58:32.516Z,22.49
2023-03-29T07:59:32.565Z,22.47
2023-03-29T08:00:32.645Z,23.04
2023-03-29T08:01:32.669Z,22.69
2023-03-29T08:02:32.672Z,22.84
2023-03-29T08:03:32.743Z,23.36
2023-03-29T08:04:32.779Z,23.27
2023-03-29T08:05:40.709Z,23.25
2023-03-29T08:06:34.279Z,23.19
2023-03-29T08:07:32.708Z,23.09
2023-03-29T08:08:32.668Z,23.05
2023-03-29T08:09:32.681Z,23.03
2023-03-29T08:10:32.718Z,22.93
2023-03-29T08:11:32.702Z,22.83
2023-03-29T08:12:32.712Z,22.66
2023-03-29T08:13:32.719Z,22.90
2023-03-29T08:14:32.618Z,22.77
2023-03-29T08:15:32.987Z,22.91
2023-03-29T08:16:32.647Z,23.04
2023-03-29T08:17:33.582Z,22.98
2023-03-29T08:18:34.751Z,23.01
2023-03-29T08:19:32.631Z,22.95
2023-03-29T08:20:32.617Z,22.95
2023-03-29T08:21:32.574Z,23.21
2023-03-29T08:22:32.580Z,22.80
2023-03-29T08:23:32.549Z,22.97
2023-03-29T08:24:32.603Z,22.89
2023-03-29T08:25:32.973Z,22.77
2023-03-29T08:26:32.519Z,22.86
2023-03-29T08:27:32.568Z,22.47
2023-03-29T08:28:32.581Z,22.61
2023-03-29T08:29:32.596Z,22.64
2023-03-29T08:30:32.629Z,22.83
2023-03-29T08:31:32.680Z,23.70
2023-03-29T08:32:32.653Z,23.82
2023-03-29T08:33:32.651Z,23.62
2023-03-29T08:34:32.654Z,23.61
2023-03-29T08:35:32.691Z,23.10
2023-03-29T08:36:32.615Z,23.29
2023-03-29T08:37:32.645Z,23.06
2023-03-29T08:38:32.649Z,23.37
2023-03-29T08:39:32.651Z,22.91
2023-03-29T08:40:32.625Z,22.71
2023-03-29T08:41:33.097Z,22.92
2023-03-29T08:42:32.650Z,22.89
2023-03-29T08:43:32.688Z,22.86
2023-03-29T08:44:32.655Z,23.00
2023-03-29T08:45:32.697Z,22.92
2023-03-29T08:46:35.316Z,22.79
2023-03-29T08:47:32.724Z,23.55
2023-03-29T08:48:32.675Z,23.88
2023-03-29T08:49:32.667Z,24.01
2023-03-29T08:50:32.660Z,23.96
2023-03-29T08:51:32.625Z,23.84
2023-03-29T08:52:32.600Z,23.20
2023-03-29T08:53:32.580Z,23.74
2023-03-29T08:54:32.602Z,23.02
2023-03-29T08:55:32.983Z,23.01
2023-03-29T08:56:34.086Z,23.23
2023-03-29T08:57:32.621Z,23.19
2023-03-29T08:58:32.549Z,23.12
2023-03-29T08:59:32.504Z,22.70
2023-03-29T09:00:32.513Z,23.01
2023-03-29T09:01:32.593Z,23.17
2023-03-29T09:02:32.605Z,23.11
2023-03-29T09:03:32.630Z,23.11
2023-03-29T09:04:32.479Z,23.08
2023-03-29T09:05:32.522Z,22.93
2023-03-29T09:06:32.464Z,23.08
2023-03-29T09:07:32.466Z,23.31
2023-03-29T09:08:32.457Z,23.28
2023-03-29T09:09:32.421Z,23.41
2023-03-29T09:10:32.503Z,23.17
2023-03-29T09:11:32.433Z,22.98
2023-03-29T09:12:32.415Z,22.74
2023-03-29T09:13:32.426Z,22.92
2023-03-29T09:14:32.380Z,22.86
2023-03-29T09:15:32.427Z,23.09
2023-03-29T09:16:32.410Z,23.03
2023-03-29T09:17:32.528Z,23.26
2023-03-29T09:18:32.366Z,23.64
2023-03-29T09:19:32.339Z,23.61
2023-03-29T09:20:32.361Z,23.77
2023-03-29T09:21:32.324Z,23.87
2023-03-29T09:22:32.464Z,23.72
2023-03-29T09:23:32.347Z,23.68
2023-03-29T09:24:32.351Z,23.75
2023-03-29T09:25:36.237Z,23.64
2023-03-29T09:26:33.416Z,23.80
2023-03-29T09:27:32.416Z,23.79
2023-03-29T09:28:32.328Z,23.72
2023-03-29T09:29:32.357Z,23.74
2023-03-29T09:30:32.489Z,23.72
2023-03-29T09:31:32.353Z,23.66
2023-03-29T09:32:32.361Z,23.64
2023-03-29T09:33:32.261Z,23.60
2023-03-29T09:34:32.252Z,23.98
2023-03-29T09:35:32.288Z,23.58
2023-03-29T09:36:32.261Z,23.57
2023-03-29T09:37:32.261Z,23.75
2023-03-29T09:38:32.817Z,23.78
2023-03-29T09:39:32.166Z,23.62
2023-03-29T09:40:32.190Z,23.63
2023-03-29T09:41:32.188Z,23.41
2023-03-29T09:42:32.173Z,23.38
2023-03-29T09:43:32.156Z,23.35
2023-03-29T09:44:32.155Z,23.06
2023-03-29T09:45:32.531Z,23.11
2023-03-29T09:46:32.253Z,23.30
2023-03-29T09:47:32.332Z,23.48
2023-03-29T09:48:32.347Z,23.59
2023-03-29T09:49:32.389Z,23.45
2023-03-29T09:50:32.490Z,23.34
2023-03-29T09:51:32.401Z,23.25
2023-03-29T09:52:32.498Z,23.35
2023-03-29T09:53:32.514Z,23.05
2023-03-29T09:54:32.530Z,23.06
2023-03-29T09:55:32.703Z,23.59
2023-03-29T09:56:32.629Z,23.33
2023-03-29T09:57:32.653Z,23.05
2023-03-29T09:58:32.760Z,22.98
2023-03-29T09:59:32.797Z,22.99
2023-03-29T10:00:32.764Z,22.83
2023-03-29T10:01:33.556Z,22.83
2023-03-29T10:02:32.992Z,22.75
2023-03-29T10:03:32.953Z,22.72
2023-03-29T10:04:33.044Z,22.71
2023-03-29T10:05:33.979Z,22.74
2023-03-29T10:06:32.919Z,22.68
2023-03-29T10:07:32.879Z,22.54
2023-03-29T10:08:33.596Z,22.47
2023-03-29T10:09:32.936Z,22.54
2023-03-29T10:10:33.087Z,22.50
2023-03-29T10:11:32.811Z,22.59
2023-03-29T10:12:32.806Z,22.63
2023-03-29T10:13:32.789Z,22.47
2023-03-29T10:14:32.827Z,22.48
2023-03-29T10:15:32.880Z,22.86
2023-03-29T10:16:33.017Z,22.26
2023-03-29T10:17:33.015Z,22.56
2023-03-29T10:18:33.002Z,22.57
2023-03-29T10:19:32.996Z,22.19
2023-03-29T10:20:33.000Z,22.29
2023-03-29T10:21:33.085Z,22.43
2023-03-29T10:22:33.076Z,22.49
2023-03-29T10:23:33.205Z,22.60
2023-03-29T10:24:33.138Z,22.51
2023-03-29T10:25:33.216Z,22.44
2023-03-29T10:26:33.301Z,22.29
2023-03-29T10:27:33.342Z,22.24
2023-03-29T10:28:33.334Z,22.24
2023-03-29T10:29:33.404Z,22.22
2023-03-29T10:30:33.398Z,22.17
2023-03-29T10:31:33.518Z,22.33
2023-03-29T10:32:33.535Z,22.04
2023-03-29T10:33:33.465Z,22.09
2023-03-29T10:34:33.528Z,22.18
2023-03-29T10:35:33.572Z,22.25
2023-03-29T10:36:33.539Z,22.13
2023-03-29T10:37:33.593Z,21.73
2023-03-29T10:38:33.651Z,21.81
2023-03-29T10:39:33.729Z,21.83
2023-03-29T10:40:33.782Z,21.89
2023-03-29T10:41:33.789Z,21.93
2023-03-29T10:42:33.842Z,22.14
2023-03-29T10:43:33.885Z,22.09
2023-03-29T10:44:33.891Z,22.03
2023-03-29T10:45:34.037Z,22.05
2023-03-29T10:46:34.012Z,21.89
2023-03-29T10:47:34.201Z,22.14
2023-03-29T10:48:34.075Z,22.21
2023-03-29T10:49:34.126Z,22.15
2023-03-29T10:50:34.199Z,21.97
2023-03-29T10:51:34.244Z,22.19
2023-03-29T10:52:34.281Z,22.21
2023-03-29T10:53:34.325Z,22.38
2023-03-29T10:54:34.367Z,22.27
2023-03-29T10:55:34.444Z,22.34
2023-03-29T10:56:34.477Z,22.30
2023-03-29T10:57:34.598Z,22.36
2023-03-29T10:58:34.553Z,22.33
2023-03-29T10:59:34.607Z,22.11
2023-03-29T11:00:34.690Z,22.21
2023-03-29T11:01:34.711Z,22.02
2023-03-29T11:02:34.824Z,22.43
2023-03-29T11:03:34.864Z,22.48
2023-03-29T11:04:34.812Z,22.48
2023-03-29T11:05:34.830Z,22.07
2023-03-29T11:06:35.131Z,22.33
2023-03-29T11:07:34.934Z,22.34
2023-03-29T11:08:34.968Z,22.36
2023-03-29T11:09:35.059Z,22.34
2023-03-29T11:10:35.149Z,23.29
2023-03-29T11:11:35.146Z,23.35
2023-03-29T11:12:35.161Z,23.82
2023-03-29T11:13:35.206Z,23.85
2023-03-29T11:14:35.256Z,23.63
2023-03-29T11:15:35.406Z,23.69
2023-03-29T11:16:35.343Z,23.54
2023-03-29T11:17:35.438Z,23.46
2023-03-29T11:18:35.486Z,23.21
2023-03-29T11:19:35.462Z,22.89
2023-03-29T11:20:35.548Z,22.95
2023-03-29T11:21:36.067Z,22.90
2023-03-29T11:22:35.622Z,22.92
2023-03-29T11:23:35.613Z,22.81
2023-03-29T11:24:35.647Z,22.67
2023-03-29T11:25:35.719Z,23.81
2023-03-29T11:26:36.089Z,23.75
2023-03-29T11:27:35.787Z,23.81
2023-03-29T11:28:35.781Z,23.85
2023-03-29T11:29:35.842Z,23.79
2023-03-29T11:30:35.910Z,23.71
2023-03-29T11:31:38.337Z,23.76
2023-03-29T11:32:35.914Z,23.65
2023-03-29T11:33:35.855Z,23.65
2023-03-29T11:34:37.148Z,23.59
2023-03-29T11:35:35.843Z,23.52
2023-03-29T11:36:36.039Z,23.51
2023-03-29T11:37:35.718Z,23.57
2023-03-29T11:38:35.718Z,23.48
2023-03-29T11:39:35.698Z,23.40
2023-03-29T11:40:35.717Z,23.43
2023-03-29T11:41:36.079Z,23.33
2023-03-29T11:42:35.657Z,23.36
2023-03-29T11:43:35.728Z,23.32
2023-03-29T11:44:35.549Z,23.33
2023-03-29T11:45:35.589Z,23.32
2023-03-29T11:46:35.536Z,23.26
2023-03-29T11:47:35.576Z,23.25
2023-03-29T11:48:35.480Z,23.13
2023-03-29T11:49:35.453Z,23.18
2023-03-29T11:50:36.843Z,23.21
2023-03-29T11:51:35.433Z,23.16
2023-03-29T11:52:35.383Z,23.09
2023-03-29T11:53:35.337Z,23.09
2023-03-29T11:54:35.348Z,23.05
2023-03-29T11:55:35.311Z,23.04
2023-03-29T11:56:35.287Z,23.03
2023-03-29T11:57:35.262Z,22.95
2023-03-29T11:58:38.285Z,22.97
2023-03-29T11:59:35.219Z,23.00
2023-03-29T12:00:35.203Z,22.97
2023-03-29T12:01:35.148Z,22.94
2023-03-29T12:02:35.348Z,22.92
2023-03-29T12:03:35.227Z,22.88
2023-03-29T12:04:35.148Z,22.85
2023-03-29T12:05:35.076Z,22.83
2023-03-29T12:06:35.060Z,22.87
2023-03-29T12:07:35.020Z,22.79
2023-03-29T12:08:35.001Z,22.79
2023-03-29T12:09:34.968Z,22.76
2023-03-29T12:10:34.949Z,22.73
2023-03-29T12:11:34.930Z,22.72
2023-03-29T12:12:34.892Z,22.76
2023-03-29T12:13:34.908Z,22.72
2023-03-29T12:14:34.866Z,22.70
2023-03-29T12:15:34.820Z,22.75
2023-03-29T12:16:34.882Z,22.72
2023-03-29T12:17:34.783Z,22.69
2023-03-29T12:18:34.738Z,22.70
2023-03-29T12:19:36.749Z,22.61
2023-03-29T12:20:35.728Z,22.66
2023-03-29T12:21:34.716Z,22.64
2023-03-29T12:22:34.626Z,22.64
2023-03-29T12:23:34.644Z,22.69
2023-03-29T12:24:34.607Z,22.69
2023-03-29T12:25:34.582Z,22.64
2023-03-29T12:26:34.539Z,22.71
2023-03-29T12:27:34.501Z,22.69
2023-03-29T12:28:34.505Z,22.72
2023-03-29T12:29:34.431Z,22.70
2023-03-29T12:30:34.564Z,22.75
2023-03-29T12:31:34.421Z,22.72
2023-03-29T12:32:34.444Z,22.67
2023-03-29T12:33:34.364Z,22.78
2023-03-29T12:34:34.329Z,22.75
2023-03-29T12:35:34.406Z,22.69
2023-03-29T12:36:34.266Z,22.75
2023-03-29T12:37:34.248Z,22.70
2023-03-29T12:38:34.217Z,22.71
2023-03-29T12:39:34.193Z,22.75
2023-03-29T12:40:34.162Z,22.72
2023-03-29T12:41:34.149Z,22.63
2023-03-29T12:42:34.149Z,22.57
2023-03-29T12:43:34.118Z,22.58
2023-03-29T12:44:34.083Z,22.46
2023-03-29T12:45:34.060Z,22.52
2023-03-29T12:46:34.099Z,22.70
2023-03-29T12:47:34.091Z,25.05
2023-03-29T12:48:34.061Z,24.98
2023-03-29T12:49:34.019Z,23.19
2023-03-29T12:50:34.014Z,22.82
2023-03-29T12:51:34.014Z,22.49
2023-03-29T12:52:34.049Z,22.32